Time;durP1;ratioP1;P1;durP2;ratioP2;P2;SDS_P1;SDS_P2;PMS_P1;PMS_P2;Temp;Humidity;BMP_temperature;BMP_pressure;BME280_temperature;BME280_humidity;BME280_pressure;Samples;Min_cycle;Max_cycle;Signal;HPM_P1;HPM_P2
2023/06/29 00:03:34;;;;;;;13.30;5.80;;;;;;;-147.53;100.00;57128.34;10488572;28;20043;-80
2023/06/29 00:08:36;;;;;;;8.88;4.75;;;;;;;-147.53;100.00;57128.34;10495589;28;20467;-79
2023/06/29 00:13:38;;;;;;;12.02;5.53;;;;;;;-147.53;100.00;57128.34;10506487;28;20621;-80
2023/06/29 00:18:40;;;;;;;14.02;6.32;;;;;;;-147.53;100.00;57128.34;10512983;28;20088;-79
2023/06/29 00:23:49;;;;;;;12.23;5.70;;;;;;;-147.53;100.00;57128.34;10498323;28;20051;-80
2023/06/29 00:28:57;;;;;;;10.90;5.38;;;;;;;-147.53;100.00;57128.34;10506336;28;20120;-80
2023/06/29 00:33:58;;;;;;;14.50;5.75;;;;;;;-147.53;100.00;57128.34;10497416;28;20123;-80
2023/06/29 00:39:04;;;;;;;12.27;6.35;;;;;;;-147.53;100.00;57128.34;10477338;28;20049;-80
2023/06/29 00:44:08;;;;;;;12.68;5.95;;;;;;;-147.53;100.00;57128.34;10486092;28;20088;-79
2023/06/29 00:49:14;;;;;;;10.77;5.28;;;;;;;-147.53;100.00;57128.34;10504461;28;20044;-80
2023/06/29 00:54:17;;;;;;;10.25;5.55;;;;;;;-147.53;100.00;57128.34;10471157;28;20086;-79
2023/06/29 00:59:19;;;;;;;11.38;6.10;;;;;;;-147.53;100.00;57128.34;10467364;28;20075;-80
2023/06/29 01:04:25;;;;;;;11.90;7.10;;;;;;;-147.53;100.00;57128.34;10484185;28;20168;-80
2023/06/29 01:09:34;;;;;;;12.00;5.22;;;;;;;-147.53;100.00;57128.34;10503262;28;20536;-80
2023/06/29 01:14:38;;;;;;;14.02;5.88;;;;;;;-147.53;100.00;57128.34;10472172;28;20036;-79
2023/06/29 01:19:47;;;;;;;12.43;6.05;;;;;;;-147.53;100.00;57128.34;10489635;28;20059;-80
2023/06/29 01:24:59;;;;;;;11.40;6.10;;;;;;;-147.53;100.00;57128.34;10475425;28;20064;-80
2023/06/29 01:30:13;;;;;;;13.13;5.97;;;;;;;-147.53;100.00;57128.34;10505413;27;20040;-80
2023/06/29 01:35:18;;;;;;;12.60;6.03;;;;;;;-147.53;100.00;57128.34;10490929;28;20039;-80
2023/06/29 01:40:28;;;;;;;11.32;5.65;;;;;;;-147.53;100.00;57128.34;10485679;28;20044;-80
2023/06/29 01:45:34;;;;;;;12.80;5.63;;;;;;;-147.53;100.00;57128.34;10487439;28;20044;-80
2023/06/29 01:50:40;;;;;;;12.15;5.95;;;;;;;-147.53;100.00;57128.34;10475447;28;20065;-80
2023/06/29 01:55:48;;;;;;;10.88;5.63;;;;;;;-147.53;100.00;57128.34;10509229;28;20471;-80
2023/06/29 02:00:50;;;;;;;18.42;5.85;;;;;;;-147.53;100.00;57128.34;10490329;28;20433;-80
2023/06/29 02:05:51;;;;;;;11.90;5.30;;;;;;;-147.53;100.00;57128.34;10507323;28;20149;-80
2023/06/29 02:10:53;;;;;;;14.32;5.20;;;;;;;-147.53;100.00;57128.34;10507279;28;20048;-79
2023/06/29 02:16:03;;;;;;;8.82;4.85;;;;;;;-147.53;100.00;57128.34;10483495;28;20049;-80
2023/06/29 02:21:08;;;;;;;11.23;5.97;;;;;;;-147.53;100.00;57128.34;10494090;28;20040;-80
2023/06/29 02:26:12;;;;;;;13.05;6.47;;;;;;;-147.53;100.00;57128.34;10489279;28;20051;-80
2023/06/29 02:31:16;;;;;;;11.63;5.25;;;;;;;-147.53;100.00;57128.34;10493933;28;20044;-80
2023/06/29 02:36:21;;;;;;;12.38;5.38;;;;;;;-147.53;100.00;57128.34;10498354;28;20540;-80
2023/06/29 02:41:23;;;;;;;14.43;5.25;;;;;;;-147.53;100.00;57128.34;10482716;28;20040;-80
2023/06/29 02:46:28;;;;;;;10.20;5.18;;;;;;;-147.53;100.00;57128.34;10498235;28;20115;-80
2023/06/29 02:51:36;;;;;;;10.52;5.68;;;;;;;-147.53;100.00;57128.34;10500114;28;20059;-80
2023/06/29 02:56:45;;;;;;;11.95;5.38;;;;;;;-147.53;100.00;57128.34;10482260;28;20119;-80
2023/06/29 03:01:47;;;;;;;8.68;4.30;;;;;;;-147.53;100.00;57128.34;10498132;28;20082;-80
2023/06/29 03:06:48;;;;;;;11.73;5.57;;;;;;;-147.53;100.00;57128.34;10518009;28;20125;-80
2023/06/29 03:11:50;;;;;;;8.80;4.30;;;;;;;-147.53;100.00;57128.34;10519015;28;20464;-80
2023/06/29 03:16:52;;;;;;;11.18;5.45;;;;;;;-147.53;100.00;57128.34;10517328;28;20056;-80
2023/06/29 03:21:53;;;;;;;13.93;6.32;;;;;;;-147.53;100.00;57128.34;10517884;28;20033;-79
2023/06/29 03:26:58;;;;;;;13.48;5.53;;;;;;;-147.53;100.00;57128.34;10513440;28;20072;-79
2023/06/29 03:32:00;;;;;;;9.77;5.15;;;;;;;-147.53;100.00;57128.34;10487395;28;20094;-79
2023/06/29 03:37:01;;;;;;;11.85;5.10;;;;;;;-147.53;100.00;57128.34;10513843;28;20490;-80
2023/06/29 03:42:03;;;;;;;10.30;4.72;;;;;;;-147.53;100.00;57128.34;10514515;28;20115;-79
2023/06/29 03:47:06;;;;;;;13.93;4.82;;;;;;;-147.53;100.00;57128.34;10513440;28;20048;-79
2023/06/29 03:52:08;;;;;;;20.10;5.68;;;;;;;-147.53;100.00;57128.34;10514942;28;20036;-79
2023/06/29 03:57:09;;;;;;;17.92;5.63;;;;;;;-147.53;100.00;57128.34;10496345;28;20119;-79
2023/06/29 04:02:11;;;;;;;11.05;4.72;;;;;;;-147.53;100.00;57128.34;10513928;28;20083;-79
2023/06/29 04:07:13;;;;;;;13.70;6.60;;;;;;;-147.53;100.00;57128.34;10496539;28;20054;-79
2023/06/29 04:12:15;;;;;;;10.90;4.90;;;;;;;-147.53;100.00;57128.34;10509074;28;20045;-79
2023/06/29 04:17:16;;;;;;;8.57;4.38;;;;;;;-147.53;100.00;57128.34;10514767;28;20074;-79
2023/06/29 04:22:18;;;;;;;10.48;5.47;;;;;;;-147.53;100.00;57128.34;10514628;28;20150;-79
2023/06/29 04:27:20;;;;;;;10.90;5.20;;;;;;;-147.53;100.00;57128.34;10514317;28;20058;-79
2023/06/29 04:32:21;;;;;;;9.77;4.70;;;;;;;-147.53;100.00;57128.34;10514056;28;20583;-79
2023/06/29 04:37:23;;;;;;;10.15;5.13;;;;;;;-147.53;100.00;57128.34;10501896;28;20032;-79
2023/06/29 04:42:25;;;;;;;13.45;5.45;;;;;;;-147.53;100.00;57128.34;10506149;28;20498;-79
2023/06/29 04:47:32;;;;;;;13.15;5.47;;;;;;;-147.53;100.00;57128.34;10493786;28;20044;-79
2023/06/29 04:52:36;;;;;;;13.02;5.65;;;;;;;-147.53;100.00;57128.34;10492896;28;20043;-79
2023/06/29 04:57:38;;;;;;;11.90;5.63;;;;;;;-147.53;100.00;57128.34;10491573;28;20130;-79
2023/06/29 05:02:41;;;;;;;12.15;5.63;;;;;;;-147.53;100.00;57128.34;10495905;28;20131;-79
2023/06/29 05:07:42;;;;;;;13.38;5.95;;;;;;;-147.53;100.00;57128.34;10512971;28;20051;-79
2023/06/29 05:12:44;;;;;;;12.07;5.63;;;;;;;-147.53;100.00;57128.34;10512884;28;20072;-79
2023/06/29 05:17:45;;;;;;;12.82;5.88;;;;;;;-147.53;100.00;57128.34;10512389;28;20048;-78
2023/06/29 05:22:47;;;;;;;12.13;6.03;;;;;;;-147.53;100.00;57128.34;10503203;28;20075;-79
2023/06/29 05:27:49;;;;;;;14.88;6.53;;;;;;;-147.53;100.00;57128.34;10509277;28;20075;-79
2023/06/29 05:32:51;;;;;;;17.80;5.75;;;;;;;-147.53;100.00;57128.34;10508573;28;20051;-78
2023/06/29 05:37:53;;;;;;;11.70;5.43;;;;;;;-147.53;100.00;57128.34;10509201;28;20060;-78
2023/06/29 05:42:56;;;;;;;15.23;5.78;;;;;;;-147.53;100.00;57128.34;10509702;28;20052;-78
2023/06/29 05:47:57;;;;;;;20.98;6.32;;;;;;;-147.53;100.00;57128.34;10509892;28;20089;-78
2023/06/29 05:52:59;;;;;;;12.68;5.65;;;;;;;-147.53;100.00;57128.34;10504347;28;20046;-78
2023/06/29 05:58:02;;;;;;;17.05;5.90;;;;;;;-147.53;100.00;57128.34;10492594;28;20040;-79
2023/06/29 06:03:04;;;;;;;15.40;6.15;;;;;;;-147.53;100.00;57128.34;10509930;28;20045;-78
2023/06/29 06:08:05;;;;;;;17.65;5.97;;;;;;;-147.53;100.00;57128.34;10493835;28;20430;-78
2023/06/29 06:13:07;;;;;;;14.70;6.53;;;;;;;-147.53;100.00;57128.34;10495348;28;20119;-78
2023/06/29 06:18:09;;;;;;;16.70;5.78;;;;;;;-147.53;100.00;57128.34;10500742;28;20048;-78
2023/06/29 06:23:10;;;;;;;21.00;6.10;;;;;;;-147.53;100.00;57128.34;10518137;28;20044;-78
2023/06/29 06:28:12;;;;;;;10.85;5.65;;;;;;;-147.53;100.00;57128.34;10519118;28;20517;-78
2023/06/29 06:33:15;;;;;;;13.75;5.88;;;;;;;-147.53;100.00;57128.34;10518560;28;20726;-78
2023/06/29 06:38:17;;;;;;;12.48;5.53;;;;;;;-147.53;100.00;57128.34;10501142;28;20056;-78
2023/06/29 06:43:19;;;;;;;14.35;5.10;;;;;;;-147.53;100.00;57128.34;10519102;28;20527;-78
2023/06/29 06:48:21;;;;;;;12.30;5.68;;;;;;;-147.53;100.00;57128.34;10521883;28;20043;-78
2023/06/29 06:53:23;;;;;;;13.95;6.25;;;;;;;-147.53;100.00;57128.34;10521559;28;20066;-78
2023/06/29 06:58:25;;;;;;;12.05;5.72;;;;;;;-147.53;100.00;57128.34;10503643;28;20062;-79
2023/06/29 07:03:27;;;;;;;12.57;5.65;;;;;;;-147.53;100.00;57128.34;10523637;28;20606;-79
2023/06/29 07:08:29;;;;;;;14.93;6.63;;;;;;;-147.53;100.00;57128.34;10525718;28;20448;-79
2023/06/29 07:13:32;;;;;;;15.23;5.90;;;;;;;-147.53;100.00;57128.34;10501732;28;20418;-79
2023/06/29 07:18:36;;;;;;;12.55;6.05;;;;;;;-147.53;100.00;57128.34;10500886;28;20570;-78
2023/06/29 07:23:38;;;;;;;9.90;4.93;;;;;;;-147.53;100.00;57128.34;10517475;28;20036;-79
2023/06/29 07:28:42;;;;;;;15.73;5.65;;;;;;;-147.53;100.00;57128.34;10519334;28;20075;-78
2023/06/29 07:33:44;;;;;;;13.82;5.78;;;;;;;-147.53;100.00;57128.34;10517911;28;20066;-79
2023/06/29 07:38:46;;;;;;;10.77;4.93;;;;;;;-147.53;100.00;57128.34;10501591;28;20146;-79
2023/06/29 07:43:51;;;;;;;19.95;5.50;;;;;;;-147.53;100.00;57128.34;10518492;28;20044;-79
2023/06/29 07:48:54;;;;;;;13.00;5.30;;;;;;;19.94;71.40;101601.56;10519640;28;20062;-79
2023/06/29 07:53:56;;;;;;;14.80;4.78;;;;;;;20.07;81.66;101320.53;10502174;28;20044;-79
2023/06/29 07:58:58;;;;;;;10.90;4.60;;;;;;;20.08;81.38;101319.63;10507014;28;20513;-79
2023/06/29 08:04:00;;;;;;;13.77;5.47;;;;;;;20.08;81.31;101315.19;10518999;28;20036;-79
2023/06/29 08:09:05;;;;;;;12.65;4.40;;;;;;;20.15;81.27;101321.31;10519977;28;20064;-79
2023/06/29 08:14:07;;;;;;;9.90;4.78;;;;;;;20.21;81.10;101312.38;10501404;28;20506;-79
2023/06/29 08:19:08;;;;;;;14.57;5.38;;;;;;;20.18;80.95;101318.63;10519562;28;20044;-79
2023/06/29 08:24:11;;;;;;;10.00;4.55;;;;;;;20.11;80.75;101309.81;10518447;28;20097;-79
2023/06/29 08:29:12;;;;;;;12.93;5.43;;;;;;;20.21;80.61;101302.63;10519485;28;20068;-79
2023/06/29 08:34:14;;;;;;;12.13;5.00;;;;;;;20.28;80.21;101306.03;10518708;28;20561;-79
2023/06/29 08:39:16;;;;;;;13.40;4.50;;;;;;;20.39;80.09;101305.91;10501358;28;20041;-79
2023/06/29 08:44:19;;;;;;;12.68;5.32;;;;;;;20.45;79.06;101300.50;10518727;28;20454;-79
2023/06/29 08:49:24;;;;;;;11.10;5.35;;;;;;;20.65;78.36;101301.06;10518987;28;20131;-79
2023/06/29 08:54:26;;;;;;;12.50;4.78;;;;;;;20.99;77.80;101297.81;10519853;28;20111;-79
2023/06/29 08:59:30;;;;;;;12.95;5.03;;;;;;;21.29;77.39;101298.16;10501328;28;20040;-79
2023/06/29 09:04:32;;;;;;;10.48;4.72;;;;;;;21.41;76.59;101291.72;10518944;28;20055;-79
2023/06/29 09:09:34;;;;;;;14.43;4.32;;;;;;;21.67;76.59;101293.84;10520400;28;20044;-79
2023/06/29 09:14:44;;;;;;;12.23;4.68;;;;;;;21.70;75.44;101293.78;10501347;28;20089;-79
2023/06/29 09:19:57;;;;;;;20.13;5.45;;;;;;;21.57;75.31;101291.41;10512379;28;20079;-79
2023/06/29 09:24:58;;;;;;;13.70;5.18;;;;;;;21.49;74.98;101280.91;10509209;28;20135;-79
2023/06/29 09:30:19;;;;;;;11.25;4.72;;;;;;;21.42;74.73;101287.25;10533895;28;20044;-78
2023/06/29 09:35:27;;;;;;;12.80;5.07;;;;;;;21.57;75.22;101289.63;10500886;28;20060;-79
2023/06/29 09:40:30;;;;;;;14.05;5.25;;;;;;;21.49;74.92;101272.91;10519985;28;20468;-79
2023/06/29 09:45:32;;;;;;;12.73;4.57;;;;;;;21.59;75.08;101274.50;10517739;28;20036;-79
2023/06/29 09:50:33;;;;;;;9.07;4.38;;;;;;;21.55;74.93;101283.47;10519063;28;20128;-79
2023/06/29 09:55:37;;;;;;;16.25;6.00;;;;;;;21.60;75.07;101281.56;10511490;28;20365;-79
2023/06/29 10:00:39;;;;;;;11.60;5.07;;;;;;;21.49;75.33;101284.41;10499194;28;20036;-79
2023/06/29 10:05:42;;;;;;;12.82;5.47;;;;;;;21.53;75.74;101274.63;10519180;28;20046;-79
2023/06/29 10:10:45;;;;;;;12.02;5.38;;;;;;;21.66;75.86;101276.13;10501531;28;20044;-79
2023/06/29 10:15:51;;;;;;;11.43;4.85;;;;;;;21.65;75.61;101277.03;10519098;28;20131;-79
2023/06/29 10:20:54;;;;;;;12.52;5.10;;;;;;;21.71;75.26;101273.38;10501844;28;20070;-78
2023/06/29 10:25:57;;;;;;;12.20;4.97;;;;;;;21.79;75.02;101270.53;10517976;28;20044;-78
2023/06/29 10:31:02;;;;;;;13.77;5.13;;;;;;;22.02;74.73;101260.22;10504328;28;20105;-79
2023/06/29 10:36:04;;;;;;;11.00;4.88;;;;;;;22.24;74.02;101262.38;10508723;28;20483;-79
2023/06/29 10:41:08;;;;;;;9.23;4.65;;;;;;;22.50;73.45;101258.22;10518909;28;20052;-78
2023/06/29 10:46:14;;;;;;;15.10;5.35;;;;;;;22.48;72.94;101249.41;10517625;28;20436;-78
2023/06/29 10:51:16;;;;;;;14.57;5.47;;;;;;;22.58;72.23;101240.25;10526187;28;20048;-78
2023/06/29 10:56:32;;;;;;;13.02;5.35;;;;;;;22.73;71.93;101247.84;10516347;28;20075;-78
2023/06/29 11:01:33;;;;;;;14.10;5.32;;;;;;;22.47;72.00;101243.16;10520201;28;20044;-78
2023/06/29 11:06:35;;;;;;;15.20;5.45;;;;;;;22.44;71.87;101234.38;10519721;28;20683;-77
2023/06/29 11:11:36;;;;;;;13.27;5.70;;;;;;;22.41;72.16;101235.31;10522807;28;20123;-77
2023/06/29 11:16:39;;;;;;;11.68;5.22;;;;;;;22.46;72.25;101229.84;10518700;28;20072;-78
2023/06/29 11:21:41;;;;;;;14.73;5.45;;;;;;;22.38;72.12;101228.28;10490422;28;20514;-77
2023/06/29 11:26:43;;;;;;;10.15;4.88;;;;;;;22.54;72.22;101233.22;10486260;28;20602;-77
2023/06/29 11:31:45;;;;;;;15.25;5.45;;;;;;;22.68;71.50;101231.06;10486503;28;20045;-77
2023/06/29 11:36:47;;;;;;;14.60;5.70;;;;;;;22.84;71.41;101222.66;10485560;28;20060;-77
2023/06/29 11:42:09;;;;;;;12.95;5.45;;;;;;;23.20;70.63;101215.44;10486759;28;20422;-77
2023/06/29 11:47:13;;;;;;;14.73;5.47;;;;;;;23.39;69.52;101206.88;10485632;28;20048;-77
2023/06/29 11:52:19;;;;;;;;;;;;;;;23.74;69.51;101210.28;10492624;28;20045;-77
2023/06/29 11:57:21;;;;;;;16.02;4.32;;;;;;;23.70;68.27;101206.81;10490253;28;19963;-76
2023/06/29 12:02:23;;;;;;;13.23;5.07;;;;;;;23.52;68.29;101199.38;10468358;28;20418;-78
2023/06/29 12:07:44;;;;;;;14.02;5.35;;;;;;;23.40;68.29;101198.81;10484915;28;20075;-75
2023/06/29 12:12:49;;;;;;;20.65;5.80;;;;;;;23.16;68.20;101194.19;10488691;28;20052;-76
2023/06/29 12:17:53;;;;;;;14.40;5.32;;;;;;;22.98;68.46;101191.09;10485535;28;20603;-76
2023/06/29 12:23:01;;;;;;;11.43;5.10;;;;;;;23.08;69.09;101192.59;10488176;28;20067;-77
2023/06/29 12:28:04;;;;;;;12.85;5.05;;;;;;;23.66;68.72;101183.81;10467847;28;20110;-76
2023/06/29 12:33:06;;;;;;;16.52;5.80;;;;;;;23.99;67.85;101181.00;10485533;28;20067;-76
2023/06/29 12:38:07;;;;;;;13.40;5.20;;;;;;;23.86;67.49;101180.50;10485659;28;20068;-77
2023/06/29 12:43:09;;;;;;;15.73;5.28;;;;;;;23.81;67.34;101182.44;10466886;28;20047;-77
2023/06/29 12:48:11;;;;;;;13.20;5.55;;;;;;;23.39;66.75;101172.13;10486026;28;20092;-76
2023/06/29 12:53:12;;;;;;;16.48;5.63;;;;;;;23.11;67.22;101167.63;10488374;28;20040;-75
2023/06/29 12:58:14;;;;;;;15.32;5.30;;;;;;;23.08;67.95;101173.91;10485580;28;20106;-76
2023/06/29 13:03:15;;;;;;;12.23;5.45;;;;;;;22.80;68.54;101164.91;10486021;28;20036;-75
2023/06/29 13:08:17;;;;;;;11.80;5.15;;;;;;;22.62;69.17;101155.63;10486063;28;20631;-75
2023/06/29 13:13:20;;;;;;;15.23;5.72;;;;;;;22.55;69.68;101155.81;10485675;28;20139;-74
2023/06/29 13:18:22;;;;;;;16.65;5.60;;;;;;;22.40;70.59;101159.75;10485466;28;20048;-74
2023/06/29 13:23:23;;;;;;;11.27;4.43;;;;;;;22.45;71.26;101156.97;10471348;28;20044;-75
2023/06/29 13:28:25;;;;;;;16.90;5.47;;;;;;;22.46;71.30;101157.81;10485552;28;20147;-74
2023/06/29 13:33:27;;;;;;;14.85;5.90;;;;;;;22.40;71.19;101150.88;10461497;28;20131;-74
2023/06/29 13:38:28;;;;;;;11.07;5.32;;;;;;;22.40;70.84;101157.09;10448246;28;20037;-74
2023/06/29 13:43:30;;;;;;;12.43;5.47;;;;;;;22.44;70.80;101152.53;10482684;28;20075;-74
2023/06/29 13:48:32;;;;;;;10.15;4.88;;;;;;;22.63;70.55;101144.03;10486314;28;20096;-75
2023/06/29 13:53:34;;;;;;;11.52;5.00;;;;;;;22.80;69.94;101135.56;10460313;28;20044;-75
2023/06/29 13:58:36;;;;;;;17.67;5.95;;;;;;;22.89;70.35;101132.63;10466132;28;20108;-75
2023/06/29 14:03:37;;;;;;;10.77;4.35;;;;;;;22.47;70.44;101138.25;10458949;28;20055;-74
2023/06/29 14:08:39;;;;;;;11.45;4.93;;;;;;;22.25;71.34;101130.78;10429906;28;20036;-75
2023/06/29 14:13:42;;;;;;;15.43;5.10;;;;;;;21.91;71.56;101126.28;10462611;28;20035;-74
2023/06/29 14:18:43;;;;;;;13.82;5.93;;;;;;;21.80;72.19;101133.66;10475771;28;20052;-75
2023/06/29 14:23:45;;;;;;;10.98;4.35;;;;;;;21.73;72.53;101124.09;10468163;28;20044;-75
2023/06/29 14:28:47;;;;;;;9.68;4.47;;;;;;;21.52;72.73;101134.34;10476332;28;20087;-78
2023/06/29 14:33:48;;;;;;;15.32;4.80;;;;;;;21.39;74.75;101122.16;10436915;28;20053;-76
2023/06/29 14:38:50;;;;;;;10.95;4.40;;;;;;;21.18;75.85;101125.28;10476647;28;20102;-76
2023/06/29 14:43:53;;;;;;;11.63;4.15;;;;;;;21.22;76.77;101120.75;10481525;28;20366;-75
2023/06/29 14:48:55;;;;;;;9.60;3.88;;;;;;;21.27;76.66;101115.31;10474181;28;20116;-76
2023/06/29 14:53:56;;;;;;;9.90;4.53;;;;;;;21.22;76.49;101107.44;10483472;28;20064;-76
2023/06/29 14:58:58;;;;;;;11.50;4.15;;;;;;;21.16;75.87;101105.78;10473363;28;20131;-75
2023/06/29 15:04:00;;;;;;;11.25;4.03;;;;;;;21.18;75.85;101106.66;10487881;28;20106;-76
2023/06/29 15:09:02;;;;;;;14.52;4.20;;;;;;;21.19;75.33;101107.50;10491927;28;20048;-75
2023/06/29 15:14:03;;;;;;;8.55;3.55;;;;;;;21.21;75.02;101108.34;10477716;28;20117;-75
2023/06/29 15:19:05;;;;;;;5.80;2.85;;;;;;;21.24;74.67;101099.41;10494095;28;20139;-76
2023/06/29 15:24:07;;;;;;;7.70;3.03;;;;;;;21.40;74.18;101102.63;10514479;28;20048;-76
2023/06/29 15:29:08;;;;;;;11.65;3.33;;;;;;;21.43;73.57;101097.22;10465784;28;20049;-76
2023/06/29 15:34:10;;;;;;;9.20;3.05;;;;;;;21.35;73.29;101100.06;10494443;28;20090;-76
2023/06/29 15:39:12;;;;;;;9.25;3.10;;;;;;;21.20;73.34;101093.28;10477995;28;20071;-77
2023/06/29 15:44:13;;;;;;;9.80;3.45;;;;;;;21.19;73.84;101095.06;10494207;28;20060;-76
2023/06/29 15:49:15;;;;;;;7.88;3.08;;;;;;;21.11;73.98;101085.50;10495788;28;20083;-76
2023/06/29 15:54:17;;;;;;;8.25;3.35;;;;;;;21.12;74.19;101087.25;10499438;28;20575;-77
2023/06/29 15:59:19;;;;;;;8.55;3.15;;;;;;;21.26;74.00;101085.16;10497494;28;20495;-77
2023/06/29 16:04:21;;;;;;;9.13;2.80;;;;;;;21.45;73.76;101074.06;10473558;28;20488;-77
2023/06/29 16:09:23;;;;;;;9.10;3.30;;;;;;;21.54;73.18;101068.56;10489126;28;20127;-77
2023/06/29 16:14:24;;;;;;;8.15;3.17;;;;;;;21.74;72.84;101064.53;10493743;28;20040;-77
2023/06/29 16:19:26;;;;;;;8.95;3.22;;;;;;;21.79;72.70;101058.16;10494300;28;20056;-77
2023/06/29 16:24:27;;;;;;;8.00;3.35;;;;;;;21.72;72.59;101056.56;10498833;28;20048;-77
2023/06/29 16:29:29;;;;;;;10.60;3.38;;;;;;;21.68;72.93;101045.13;10494077;28;20048;-77
2023/06/29 16:34:31;;;;;;;9.68;3.60;;;;;;;21.66;72.86;101032.75;10474889;28;20060;-77
2023/06/29 16:39:32;;;;;;;9.07;3.67;;;;;;;21.59;73.26;101024.03;10480320;28;20460;-77
2023/06/29 16:44:34;;;;;;;10.35;4.00;;;;;;;21.57;73.42;101025.84;10479005;28;20044;-77
2023/06/29 16:49:38;;;;;;;9.00;3.47;;;;;;;21.51;73.70;101031.34;10497051;28;20044;-76
2023/06/29 16:54:40;;;;;;;10.43;4.47;;;;;;;21.43;74.06;101027.97;10495668;28;20460;-77
2023/06/29 16:59:41;;;;;;;9.93;3.80;;;;;;;21.52;74.66;101025.97;10497491;28;20049;-77
2023/06/29 17:04:43;;;;;;;9.63;3.88;;;;;;;21.48;74.46;101037.59;10493857;28;20040;-77
2023/06/29 17:09:45;;;;;;;10.10;4.13;;;;;;;21.40;74.77;101078.66;10475370;28;20114;-77
2023/06/29 17:14:47;;;;;;;13.55;4.68;;;;;;;20.37;77.31;101101.16;10479476;28;20117;-77
2023/06/29 17:19:49;;;;;;;18.52;7.50;;;;;;;-147.53;100.00;57128.34;10504521;28;20526;-79
2023/06/29 17:24:50;;;;;;;13.05;6.20;;;;;;;-147.53;100.00;57128.34;10504210;28;20048;-78
2023/06/29 17:29:52;;;;;;;15.55;5.85;;;;;;;-147.53;100.00;57128.34;10502747;28;20147;-80
2023/06/29 17:34:53;;;;;;;15.02;6.28;;;;;;;-147.53;100.00;57128.34;10501187;28;20490;-81
2023/06/29 17:39:55;;;;;;;12.80;5.95;;;;;;;-147.53;100.00;57128.34;10476000;28;20045;-81
2023/06/29 17:44:57;;;;;;;12.98;6.55;;;;;;;-147.53;100.00;57128.34;10492068;28;20066;-80
2023/06/29 17:49:59;;;;;;;17.02;6.78;;;;;;;-147.53;100.00;57128.34;10496731;28;20059;-80
2023/06/29 17:55:01;;;;;;;17.00;5.60;;;;;;;-147.53;100.00;57128.34;10443399;28;20093;-80
2023/06/29 18:00:05;;;;;;;15.13;6.72;;;;;;;-147.53;100.00;57128.34;10478368;28;20056;-80
2023/06/29 18:05:08;;;;;;;13.45;5.85;;;;;;;-147.53;100.00;57128.34;10490511;28;20048;-81
2023/06/29 18:10:10;;;;;;;19.35;7.88;;;;;;;-147.53;100.00;57128.34;10477805;28;20449;-81
2023/06/29 18:15:12;;;;;;;16.05;6.45;;;;;;;-147.53;100.00;57128.34;10493111;28;20028;-81
2023/06/29 18:20:15;;;;;;;19.13;6.55;;;;;;;-147.53;100.00;57128.34;10492638;28;20053;-80
2023/06/29 18:25:17;;;;;;;18.83;6.75;;;;;;;-147.53;100.00;57128.34;10516312;28;20048;-81
2023/06/29 18:30:19;;;;;;;20.73;7.07;;;;;;;-147.53;100.00;57128.34;10510114;28;20044;-81
2023/06/29 18:35:20;;;;;;;19.27;7.40;;;;;;;-147.53;100.00;57128.34;10507680;28;20452;-81
2023/06/29 18:40:26;;;;;;;16.92;6.80;;;;;;;-147.53;100.00;57128.34;10508919;28;20524;-81
2023/06/29 18:45:29;;;;;;;15.25;7.05;;;;;;;-147.53;100.00;57128.34;10483234;28;20044;-80
2023/06/29 18:50:31;;;;;;;16.02;8.02;;;;;;;-147.53;100.00;57128.34;10489287;28;20541;-81
2023/06/29 18:55:34;;;;;;;14.77;6.55;;;;;;;-147.53;100.00;57128.34;10470610;28;20684;-81
2023/06/29 19:00:36;;;;;;;27.40;7.85;;;;;;;-147.53;100.00;57128.34;10471870;28;20094;-81
2023/06/29 19:05:38;;;;;;;18.48;7.22;;;;;;;-147.53;100.00;57128.34;10474357;28;20052;-80
2023/06/29 19:10:40;;;;;;;17.77;7.30;;;;;;;-147.53;100.00;57128.34;10511152;28;20169;-80
2023/06/29 19:15:41;;;;;;;20.83;7.47;;;;;;;-147.53;100.00;57128.34;10512589;28;20055;-81
2023/06/29 19:20:46;;;;;;;15.40;7.03;;;;;;;-147.53;100.00;57128.34;10501884;28;20349;-81
2023/06/29 19:25:48;;;;;;;16.95;7.80;;;;;;;-147.53;100.00;57128.34;10516266;28;20063;-80
2023/06/29 19:30:49;;;;;;;18.48;7.13;;;;;;;-147.53;100.00;57128.34;10500514;28;20123;-80
2023/06/29 19:35:51;;;;;;;15.02;6.63;;;;;;;-147.53;100.00;57128.34;10499460;28;20037;-80
2023/06/29 19:40:52;;;;;;;15.07;6.68;;;;;;;-147.53;100.00;57128.34;10518815;28;20067;-80
2023/06/29 19:45:54;;;;;;;18.38;6.72;;;;;;;-147.53;100.00;57128.34;10514776;28;20071;-81
2023/06/29 19:50:56;;;;;;;15.45;7.22;;;;;;;-147.53;100.00;57128.34;10521710;28;20052;-81
2023/06/29 19:55:58;;;;;;;15.35;6.47;;;;;;;-147.53;100.00;57128.34;10512928;28;20078;-80
2023/06/29 20:00:59;;;;;;;17.15;7.90;;;;;;;-147.53;100.00;57128.34;10519246;28;20090;-81
2023/06/29 20:06:01;;;;;;;18.38;7.65;;;;;;;-147.53;100.00;57128.34;10496246;28;20048;-81
2023/06/29 20:11:03;;;;;;;18.02;7.85;;;;;;;-147.53;100.00;57128.34;10510111;28;20664;-80
2023/06/29 20:16:05;;;;;;;16.20;7.00;;;;;;;-147.53;100.00;57128.34;10476674;28;20044;-81
2023/06/29 20:21:07;;;;;;;9.75;4.30;;;;;;;-147.53;100.00;57128.34;10491878;28;20131;-81
2023/06/29 20:26:08;;;;;;;10.65;4.90;;;;;;;-147.53;100.00;57128.34;10508405;28;20130;-81
2023/06/29 20:31:10;;;;;;;13.35;3.83;;;;;;;-147.53;100.00;57128.34;10490563;28;20044;-81
2023/06/29 20:36:13;;;;;;;8.25;2.97;;;;;;;-147.53;100.00;57128.34;10506517;28;20058;-80
2023/06/29 20:41:14;;;;;;;8.48;2.88;;;;;;;-147.53;100.00;57128.34;10516632;28;20044;-81
2023/06/29 20:46:16;;;;;;;9.77;3.15;;;;;;;-147.53;100.00;57128.34;10501289;28;20071;-81
2023/06/29 20:51:17;;;;;;;7.00;2.95;;;;;;;-147.53;100.00;57128.34;10522407;28;20060;-81
2023/06/29 20:56:19;;;;;;;6.10;2.85;;;;;;;-147.53;100.00;57128.34;10523191;28;20055;-80
2023/06/29 21:01:23;;;;;;;3.67;1.90;;;;;;;-147.53;100.00;57128.34;10529059;28;20054;-81
2023/06/29 21:06:25;;;;;;;3.38;1.55;;;;;;;-147.53;100.00;57128.34;10523509;28;20078;-81
2023/06/29 21:11:27;;;;;;;4.22;1.45;;;;;;;-147.53;100.00;57128.34;10508051;28;20066;-81
2023/06/29 21:16:34;;;;;;;2.75;1.42;;;;;;;-147.53;100.00;57128.34;10520817;28;20089;-81
2023/06/29 21:21:36;;;;;;;1.70;1.00;;;;;;;-147.53;100.00;57128.34;10525430;28;20055;-81
2023/06/29 21:26:38;;;;;;;2.25;1.08;;;;;;;-147.53;100.00;57128.34;10506745;28;20069;-81
2023/06/29 21:31:41;;;;;;;1.42;0.95;;;;;;;-147.53;100.00;57128.34;10506732;28;20060;-81
2023/06/29 21:36:43;;;;;;;1.83;0.70;;;;;;;-147.53;100.00;57128.34;10524893;28;20043;-81
2023/06/29 21:41:44;;;;;;;2.67;0.80;;;;;;;-147.53;100.00;57128.34;10523945;28;20055;-80
2023/06/29 21:46:46;;;;;;;0.60;0.50;;;;;;;-147.53;100.00;57128.34;10520317;28;20040;-81
2023/06/29 21:51:48;;;;;;;0.43;0.40;;;;;;;-147.53;100.00;57128.34;10507916;28;20048;-81
2023/06/29 21:56:49;;;;;;;1.15;0.45;;;;;;;-147.53;100.00;57128.34;10525573;28;20094;-81
2023/06/29 22:01:51;;;;;;;1.80;0.38;;;;;;;-147.53;100.00;57128.34;10527120;28;20044;-81
2023/06/29 22:06:53;;;;;;;0.75;0.40;;;;;;;-147.53;100.00;57128.34;10526577;28;20680;-81
2023/06/29 22:12:11;;;;;;;0.38;0.38;;;;;;;-147.53;100.00;57128.34;10519065;28;20047;-81
2023/06/29 22:17:14;;;;;;;0.50;0.50;;;;;;;-147.53;100.00;57128.34;10505310;28;20049;-81
2023/06/29 22:22:15;;;;;;;0.70;0.47;;;;;;;-147.53;100.00;57128.34;10527387;28;20052;-81
2023/06/29 22:27:17;;;;;;;4.15;0.70;;;;;;;-147.53;100.00;57128.34;10527635;28;20055;-81
2023/06/29 22:32:19;;;;;;;1.40;0.82;;;;;;;-147.53;100.00;57128.34;10525456;28;20066;-81
2023/06/29 22:37:20;;;;;;;0.80;0.50;;;;;;;-147.53;100.00;57128.34;10524328;28;20572;-81
2023/06/29 22:42:22;;;;;;;1.15;0.73;;;;;;;-147.53;100.00;57128.34;10526545;28;20059;-81